Time;durP1;ratioP1;P1;durP2;ratioP2;P2;SDS_P1;SDS_P2;PMS_P1;PMS_P2;Temp;Humidity;BMP_temperature;BMP_pressure;BME280_temperature;BME280_humidity;BME280_pressure;Samples;Min_cycle;Max_cycle;Signal;HPM_P1;HPM_P2
2023/06/29 00:00:28;;;;;;;11.32;7.68;;;;;;;;;;5058722;28;20544;-81
2023/06/29 00:02:54;;;;;;;10.85;7.03;;;;;;;;;;5062170;28;20435;-81
2023/06/29 00:05:21;;;;;;;11.85;7.50;;;;;;;;;;5048794;28;20056;-79
2023/06/29 00:07:47;;;;;;;10.77;7.80;;;;;;;;;;5037925;28;20083;-81
2023/06/29 00:10:13;;;;;;;10.82;7.50;;;;;;;;;;5050286;28;20029;-81
2023/06/29 00:12:38;;;;;;;11.05;7.30;;;;;;;;;;5058874;28;20112;-81
2023/06/29 00:15:05;;;;;;;14.32;8.75;;;;;;;;;;5047439;28;20112;-81
2023/06/29 00:17:30;;;;;;;10.90;7.55;;;;;;;;;;5049910;28;20025;-80
2023/06/29 00:19:56;;;;;;;11.38;8.13;;;;;;;;;;5068102;28;20086;-81
2023/06/29 00:22:22;;;;;;;12.73;9.02;;;;;;;;;;5053238;28;20021;-81
2023/06/29 00:24:55;;;;;;;11.57;7.65;;;;;;;;;;5067491;28;20477;-81
2023/06/29 00:27:21;;;;;;;11.30;7.60;;;;;;;;;;5039142;28;20021;-81
2023/06/29 00:29:47;;;;;;;14.35;8.10;;;;;;;;;;5054521;28;20071;-82
2023/06/29 00:32:13;;;;;;;11.85;7.70;;;;;;;;;;5056727;28;20091;-81
2023/06/29 00:34:38;;;;;;;11.70;7.57;;;;;;;;;;5058300;28;20519;-81
2023/06/29 00:37:04;;;;;;;12.73;7.80;;;;;;;;;;5036470;28;20021;-81
2023/06/29 00:39:31;;;;;;;14.05;8.63;;;;;;;;;;5053943;28;20030;-81
2023/06/29 00:41:56;;;;;;;12.18;7.68;;;;;;;;;;5033018;28;20036;-82
2023/06/29 00:44:22;;;;;;;10.27;7.72;;;;;;;;;;5051824;28;20033;-76
2023/06/29 00:46:49;;;;;;;11.75;8.23;;;;;;;;;;5051399;28;20033;-81
2023/06/29 00:49:15;;;;;;;11.75;7.90;;;;;;;;;;5032382;28;20460;-81
2023/06/29 00:51:41;;;;;;;11.68;8.00;;;;;;;;;;5040300;28;20029;-81
2023/06/29 00:54:07;;;;;;;12.40;8.23;;;;;;;;;;5036616;28;20020;-81
2023/06/29 00:56:34;;;;;;;12.70;8.27;;;;;;;;;;5032889;28;20025;-82
2023/06/29 00:59:00;;;;;;;12.48;8.15;;;;;;;;;;5054069;28;20021;-82
2023/06/29 01:01:27;;;;;;;13.13;8.32;;;;;;;;;;5052669;28;20040;-81
2023/06/29 01:03:57;;;;;;;12.75;8.18;;;;;;;;;;5055878;28;20044;-80
2023/06/29 01:06:29;;;;;;;14.70;8.10;;;;;;;;;;5035457;28;20393;-80
2023/06/29 01:09:01;;;;;;;12.00;7.93;;;;;;;;;;5047691;28;20025;-81
2023/06/29 01:11:26;;;;;;;12.68;8.68;;;;;;;;;;5032950;28;20039;-81
2023/06/29 01:13:53;;;;;;;12.00;8.35;;;;;;;;;;5038234;28;20025;-81
2023/06/29 01:16:20;;;;;;;12.95;8.70;;;;;;;;;;5052624;28;20021;-79
2023/06/29 01:18:47;;;;;;;12.75;8.70;;;;;;;;;;5057791;28;20028;-81
2023/06/29 01:21:14;;;;;;;14.43;8.23;;;;;;;;;;5044618;28;20119;-81
2023/06/29 01:23:40;;;;;;;11.65;8.32;;;;;;;;;;5052824;28;20024;-79
2023/06/29 01:26:05;;;;;;;11.65;8.32;;;;;;;;;;5035761;28;20049;-81
2023/06/29 01:28:32;;;;;;;12.48;8.45;;;;;;;;;;5032373;28;20147;-82
2023/06/29 01:31:02;;;;;;;13.40;8.68;;;;;;;;;;5041182;28;20028;-80
2023/06/29 01:33:30;;;;;;;11.45;7.72;;;;;;;;;;5043230;28;20029;-80
2023/06/29 01:36:07;;;;;;;14.65;9.15;;;;;;;;;;5060004;28;20024;-81
2023/06/29 01:38:38;;;;;;;13.07;8.50;;;;;;;;;;5035699;28;20035;-82
2023/06/29 01:41:06;;;;;;;11.48;7.97;;;;;;;;;;5062394;28;20455;-81
2023/06/29 01:43:34;;;;;;;12.13;8.77;;;;;;;;;;5058276;28;20025;-81
2023/06/29 01:45:59;;;;;;;13.40;8.55;;;;;;;;;;5061368;28;20028;-81
2023/06/29 01:48:26;;;;;;;13.07;8.57;;;;;;;;;;5040600;28;20116;-82
2023/06/29 01:50:51;;;;;;;12.93;8.10;;;;;;;;;;5039407;28;20075;-81
2023/06/29 01:53:17;;;;;;;12.13;8.35;;;;;;;;;;5057777;28;20029;-77
2023/06/29 01:55:42;;;;;;;13.05;8.75;;;;;;;;;;5047827;28;20024;-82
2023/06/29 01:58:09;;;;;;;13.98;8.55;;;;;;;;;;5060423;28;20029;-82
2023/06/29 02:00:35;;;;;;;14.40;8.27;;;;;;;;;;5036832;28;20033;-81
2023/06/29 02:03:01;;;;;;;14.00;8.60;;;;;;;;;;5037652;28;20028;-82
2023/06/29 02:05:26;;;;;;;12.50;8.70;;;;;;;;;;5053884;28;20020;-82
2023/06/29 02:07:52;;;;;;;13.00;9.07;;;;;;;;;;5065498;28;20190;-82
2023/06/29 02:10:17;;;;;;;14.52;8.98;;;;;;;;;;5044528;28;20500;-82
2023/06/29 02:12:43;;;;;;;13.15;9.00;;;;;;;;;;5039234;28;20033;-82
2023/06/29 02:15:08;;;;;;;12.75;8.45;;;;;;;;;;5038747;28;20033;-81
2023/06/29 02:17:34;;;;;;;14.10;9.52;;;;;;;;;;5054913;28;20028;-81
2023/06/29 02:19:59;;;;;;;11.90;8.43;;;;;;;;;;5060254;28;20028;-81
2023/06/29 02:22:25;;;;;;;13.98;9.68;;;;;;;;;;5049318;28;20032;-82
2023/06/29 02:24:50;;;;;;;13.52;9.38;;;;;;;;;;5041915;28;20079;-82
2023/06/29 02:27:15;;;;;;;13.95;8.95;;;;;;;;;;5053621;28;20036;-81
2023/06/29 02:29:41;;;;;;;15.70;10.07;;;;;;;;;;5047970;28;20024;-82
2023/06/29 02:32:06;;;;;;;14.70;9.40;;;;;;;;;;5054239;28;20033;-82
2023/06/29 02:34:32;;;;;;;16.10;10.38;;;;;;;;;;5038700;28;20071;-82
2023/06/29 02:36:57;;;;;;;15.65;10.30;;;;;;;;;;5066075;28;20028;-82
2023/06/29 02:39:22;;;;;;;14.40;10.60;;;;;;;;;;5042813;28;20025;-82
2023/06/29 02:41:48;;;;;;;17.23;10.40;;;;;;;;;;5056825;28;20037;-81
2023/06/29 02:44:13;;;;;;;14.57;9.80;;;;;;;;;;5050115;28;20484;-82
2023/06/29 02:46:38;;;;;;;16.60;10.25;;;;;;;;;;5054522;28;20028;-82
2023/06/29 02:49:04;;;;;;;15.20;9.73;;;;;;;;;;5051196;28;20025;-81
2023/06/29 02:51:29;;;;;;;18.48;10.55;;;;;;;;;;5051813;28;20028;-82
2023/06/29 02:53:55;;;;;;;13.10;10.00;;;;;;;;;;5054574;28;20080;-82
2023/06/29 02:56:20;;;;;;;14.15;10.07;;;;;;;;;;5064760;28;20036;-81
2023/06/29 02:58:45;;;;;;;16.70;11.90;;;;;;;;;;5057470;28;20075;-82
2023/06/29 03:01:11;;;;;;;16.73;11.98;;;;;;;;;;5030664;28;20424;-81
2023/06/29 03:03:36;;;;;;;16.30;11.00;;;;;;;;;;5053932;28;20015;-82
2023/06/29 03:06:02;;;;;;;17.20;10.75;;;;;;;;;;5056841;28;20481;-82
2023/06/29 03:08:27;;;;;;;16.52;11.43;;;;;;;;;;5049912;28;20032;-82
2023/06/29 03:10:53;;;;;;;17.05;11.05;;;;;;;;;;5058494;28;20021;-81
2023/06/29 03:13:18;;;;;;;16.50;10.68;;;;;;;;;;5055669;28;20607;-81
2023/06/29 03:15:43;;;;;;;16.50;10.45;;;;;;;;;;5053096;28;20405;-81
2023/06/29 03:18:09;;;;;;;16.20;11.00;;;;;;;;;;5052341;28;20040;-81
2023/06/29 03:20:34;;;;;;;18.35;11.57;;;;;;;;;;5049125;28;20087;-81
2023/06/29 03:22:59;;;;;;;15.60;10.82;;;;;;;;;;5035371;28;20037;-82
2023/06/29 03:25:25;;;;;;;18.08;11.60;;;;;;;;;;5054863;28;20413;-81
2023/06/29 03:27:50;;;;;;;17.27;10.82;;;;;;;;;;5035848;28;20025;-82
2023/06/29 03:30:16;;;;;;;19.13;12.30;;;;;;;;;;5039693;28;20017;-78
2023/06/29 03:32:41;;;;;;;18.48;11.80;;;;;;;;;;5053790;28;20114;-83
2023/06/29 03:35:07;;;;;;;15.23;10.88;;;;;;;;;;5032035;28;20032;-81
2023/06/29 03:37:33;;;;;;;16.08;11.77;;;;;;;;;;5046536;28;20489;-81
2023/06/29 03:39:58;;;;;;;18.90;11.57;;;;;;;;;;5057403;28;20048;-82
2023/06/29 03:42:24;;;;;;;16.40;11.27;;;;;;;;;;5055617;28;20111;-82
2023/06/29 03:44:50;;;;;;;17.98;12.07;;;;;;;;;;5038766;28;20079;-82
2023/06/29 03:47:15;;;;;;;17.63;12.65;;;;;;;;;;5041513;28;20090;-81
2023/06/29 03:49:41;;;;;;;19.02;13.15;;;;;;;;;;5056812;28;20112;-81
2023/06/29 03:52:06;;;;;;;19.20;12.43;;;;;;;;;;5055430;28;20478;-81
2023/06/29 03:54:32;;;;;;;17.75;12.77;;;;;;;;;;5049253;28;20432;-82
2023/06/29 03:56:57;;;;;;;18.58;12.43;;;;;;;;;;5057397;28;20388;-82
2023/06/29 03:59:22;;;;;;;19.10;12.18;;;;;;;;;;5061922;28;20024;-81
2023/06/29 04:01:48;;;;;;;19.23;13.05;;;;;;;;;;5031074;28;20029;-81
2023/06/29 04:04:13;;;;;;;17.92;11.88;;;;;;;;;;5034583;28;20024;-81
2023/06/29 04:06:39;;;;;;;17.33;12.02;;;;;;;;;;5051644;28;20389;-82
2023/06/29 04:09:04;;;;;;;17.85;11.75;;;;;;;;;;5044762;28;20120;-81
2023/06/29 04:11:29;;;;;;;17.42;11.68;;;;;;;;;;5036427;28;20120;-82
2023/06/29 04:13:55;;;;;;;19.98;12.10;;;;;;;;;;5057481;28;20086;-82
2023/06/29 04:16:20;;;;;;;18.33;12.70;;;;;;;;;;5055183;28;20032;-81
2023/06/29 04:18:45;;;;;;;21.85;13.73;;;;;;;;;;5031178;28;20036;-82
2023/06/29 04:21:11;;;;;;;19.63;12.25;;;;;;;;;;5048703;28;20091;-82
2023/06/29 04:23:36;;;;;;;18.55;11.98;;;;;;;;;;5050832;28;20028;-81
2023/06/29 04:26:03;;;;;;;18.88;12.52;;;;;;;;;;5048501;28;20392;-82
2023/06/29 04:28:34;;;;;;;16.52;11.68;;;;;;;;;;5051402;28;20059;-81
2023/06/29 04:31:00;;;;;;;17.67;11.20;;;;;;;;;;5049126;28;20073;-82
2023/06/29 04:33:25;;;;;;;19.80;11.73;;;;;;;;;;5053044;28;20473;-81
2023/06/29 04:35:50;;;;;;;16.20;11.20;;;;;;;;;;5036433;28;20132;-82
2023/06/29 04:38:17;;;;;;;21.23;13.55;;;;;;;;;;5051117;28;20028;-82
2023/06/29 04:40:43;;;;;;;17.02;11.00;;;;;;;;;;5033517;28;20394;-81
2023/06/29 04:43:09;;;;;;;17.73;11.80;;;;;;;;;;5046586;28;20029;-82
2023/06/29 04:45:34;;;;;;;19.10;11.85;;;;;;;;;;5049325;28;20025;-82
2023/06/29 04:48:00;;;;;;;22.10;13.98;;;;;;;;;;5052776;28;20040;-82
2023/06/29 04:50:31;;;;;;;19.42;12.75;;;;;;;;;;5033424;28;20021;-82
2023/06/29 04:52:58;;;;;;;18.48;11.65;;;;;;;;;;5033299;28;20381;-81
2023/06/29 04:55:24;;;;;;;17.63;11.50;;;;;;;;;;5028788;28;20079;-81
2023/06/29 04:57:50;;;;;;;18.50;11.13;;;;;;;;;;5037177;28;20128;-82
2023/06/29 05:00:15;;;;;;;20.10;13.05;;;;;;;;;;5053285;28;20485;-82
2023/06/29 05:02:42;;;;;;;18.13;11.40;;;;;;;;;;5041440;28;20021;-82
2023/06/29 05:05:07;;;;;;;17.75;11.40;;;;;;;;;;5058089;28;20070;-82
2023/06/29 05:07:34;;;;;;;17.90;11.98;;;;;;;;;;5054709;28;20056;-82
2023/06/29 05:10:00;;;;;;;19.63;12.10;;;;;;;;;;5064809;28;20025;-80
2023/06/29 05:12:26;;;;;;;16.83;11.00;;;;;;;;;;5037939;28;20473;-82
2023/06/29 05:14:51;;;;;;;15.93;11.05;;;;;;;;;;5036615;28;20052;-79
2023/06/29 05:17:19;;;;;;;17.85;11.15;;;;;;;;;;5053143;28;20036;-82
2023/06/29 05:19:45;;;;;;;16.13;10.93;;;;;;;;;;5039136;28;20028;-82
2023/06/29 05:22:11;;;;;;;16.88;11.02;;;;;;;;;;5057920;28;20021;-82
2023/06/29 05:24:37;;;;;;;19.40;11.02;;;;;;;;;;5064211;28;20430;-81
2023/06/29 05:27:06;;;;;;;20.60;11.70;;;;;;;;;;5041507;28;20024;-82
2023/06/29 05:29:31;;;;;;;18.23;11.05;;;;;;;;;;5028751;28;20025;-82
2023/06/29 05:31:57;;;;;;;18.83;12.38;;;;;;;;;;5039529;28;20399;-82
2023/06/29 05:34:22;;;;;;;17.10;11.00;;;;;;;;;;5055834;28;20029;-82
2023/06/29 05:36:47;;;;;;;17.05;12.13;;;;;;;;;;5056115;28;20021;-81
2023/06/29 05:39:13;;;;;;;17.20;11.75;;;;;;;;;;5039732;28;20025;-82
2023/06/29 05:41:38;;;;;;;19.52;12.45;;;;;;;;;;5065872;28;20060;-84
2023/06/29 05:44:06;;;;;;;16.92;10.82;;;;;;;;;;5062279;28;20028;-82
2023/06/29 05:46:33;;;;;;;20.27;12.25;;;;;;;;;;5036469;28;20029;-82
2023/06/29 05:48:59;;;;;;;18.10;11.35;;;;;;;;;;5036606;28;20539;-83
2023/06/29 05:51:24;;;;;;;19.83;12.63;;;;;;;;;;5040571;28;20112;-83
2023/06/29 05:53:49;;;;;;;17.92;11.68;;;;;;;;;;5055583;28;20535;-83
2023/06/29 05:56:15;;;;;;;19.58;11.80;;;;;;;;;;5063175;28;20431;-83
2023/06/29 05:58:40;;;;;;;18.00;11.82;;;;;;;;;;5055610;28;20035;-80
2023/06/29 06:01:05;;;;;;;18.33;11.93;;;;;;;;;;5039136;28;20029;-83
2023/06/29 06:03:31;;;;;;;19.67;12.40;;;;;;;;;;5036526;28;20013;-83
2023/06/29 06:05:56;;;;;;;19.00;12.98;;;;;;;;;;5052630;28;20028;-83
2023/06/29 06:08:21;;;;;;;18.00;11.43;;;;;;;;;;5041071;28;20025;-83
2023/06/29 06:10:47;;;;;;;19.00;11.55;;;;;;;;;;5052931;28;20033;-84
2023/06/29 06:13:12;;;;;;;20.33;12.35;;;;;;;;;;5060294;28;20017;-83
2023/06/29 06:15:39;;;;;;;18.42;11.88;;;;;;;;;;5057651;28;20029;-84
2023/06/29 06:18:06;;;;;;;21.10;13.10;;;;;;;;;;5060257;28;20068;-83
2023/06/29 06:20:31;;;;;;;23.02;15.30;;;;;;;;;;5035705;28;20029;-83
2023/06/29 06:22:56;;;;;;;19.48;12.65;;;;;;;;;;5060865;28;20106;-83
2023/06/29 06:25:22;;;;;;;21.20;13.15;;;;;;;;;;5034355;28;20112;-83
2023/06/29 06:27:47;;;;;;;20.20;12.15;;;;;;;;;;5036389;28;20032;-83
2023/06/29 06:30:13;;;;;;;21.80;13.20;;;;;;;;;;5049571;28;20547;-77
2023/06/29 06:32:39;;;;;;;21.48;13.63;;;;;;;;;;5030734;28;20044;-83
2023/06/29 06:35:05;;;;;;;22.80;14.13;;;;;;;;;;5033493;28;20492;-83
2023/06/29 06:37:31;;;;;;;23.13;13.77;;;;;;;;;;5066803;28;20052;-83
2023/06/29 06:39:56;;;;;;;21.05;13.32;;;;;;;;;;5050656;28;20087;-83
2023/06/29 06:42:21;;;;;;;20.67;12.70;;;;;;;;;;5033664;28;20037;-84
2023/06/29 06:44:57;;;;;;;19.40;12.27;;;;;;;;;;5052326;28;20385;-84
2023/06/29 06:47:22;;;;;;;19.88;12.85;;;;;;;;;;5025756;28;20121;-84
2023/06/29 06:49:47;;;;;;;20.35;12.95;;;;;;;;;;5053232;28;20109;-83
2023/06/29 06:52:13;;;;;;;24.23;13.52;;;;;;;;;;5060778;28;20029;-81
2023/06/29 06:54:38;;;;;;;20.65;12.73;;;;;;;;;;5052837;28;20078;-84
2023/06/29 06:57:04;;;;;;;19.08;12.15;;;;;;;;;;5052149;28;20405;-81
2023/06/29 06:59:29;;;;;;;21.27;13.35;;;;;;;;;;5050611;28;20104;-85
2023/06/29 07:01:55;;;;;;;20.85;12.23;;;;;;;;;;5053049;28;20484;-84
2023/06/29 07:04:20;;;;;;;18.15;12.30;;;;;;;;;;5050082;28;20066;-82
2023/06/29 07:06:46;;;;;;;20.75;12.35;;;;;;;;;;5032730;28;20028;-84
2023/06/29 07:09:12;;;;;;;20.17;12.77;;;;;;;;;;5053317;28;20480;-85
2023/06/29 07:11:37;;;;;;;19.25;12.35;;;;;;;;;;5051358;28;20068;-85
2023/06/29 07:14:04;;;;;;;18.02;11.65;;;;;;;;;;5036454;28;20493;-85
2023/06/29 07:16:29;;;;;;;19.40;11.75;;;;;;;;;;5031284;28;20029;-85
2023/06/29 07:19:03;;;;;;;17.52;11.07;;;;;;;;;;5052734;28;20029;-85
2023/06/29 07:21:29;;;;;;;18.33;11.30;;;;;;;;;;5029460;28;20039;-85
2023/06/29 07:23:54;;;;;;;19.83;12.13;;;;;;;;;;5034608;28;20115;-86
2023/06/29 07:26:20;;;;;;;19.77;11.93;;;;;;;;;;5048832;28;20032;-81
2023/06/29 07:28:45;;;;;;;18.73;11.77;;;;;;;;;;5053302;28;20052;-85
2023/06/29 07:31:11;;;;;;;17.20;11.82;;;;;;;;;;5050448;28;20579;-84
2023/06/29 07:33:36;;;;;;;18.75;10.93;;;;;;;;;;5032749;28;20394;-86
2023/06/29 07:36:02;;;;;;;21.15;11.68;;;;;;;;;;5034656;28;20132;-84
2023/06/29 07:38:27;;;;;;;19.75;11.05;;;;;;;;;;5036938;28;20017;-86
2023/06/29 07:40:52;;;;;;;18.92;11.52;;;;;;;;;;5040400;28;20090;-86
2023/06/29 07:43:18;;;;;;;17.95;12.05;;;;;;;;;;5032973;28;20025;-85
2023/06/29 07:45:43;;;;;;;17.13;11.00;;;;;;;;;;5052006;28;20028;-86
2023/06/29 07:48:09;;;;;;;16.48;10.35;;;;;;;;;;5059469;28;20081;-85
2023/06/29 07:50:34;;;;;;;17.90;10.60;;;;;;;;;;5039013;28;20032;-85
2023/06/29 07:52:59;;;;;;;19.88;11.80;;;;;;;;;;5035135;28;20025;-85
2023/06/29 07:55:25;;;;;;;17.15;10.70;;;;;;;;;;5041025;28;20033;-85
2023/06/29 07:57:51;;;;;;;18.42;11.25;;;;;;;;;;5045934;28;20492;-83
2023/06/29 08:00:17;;;;;;;20.08;12.38;;;;;;;;;;5065200;28;20079;-86
2023/06/29 08:02:42;;;;;;;19.10;11.75;;;;;;;;;;5060836;28;20059;-84
2023/06/29 08:05:08;;;;;;;18.63;10.38;;;;;;;;;;5055953;28;20024;-84
2023/06/29 08:07:33;;;;;;;18.20;10.57;;;;;;;;;;5030815;28;20025;-86
2023/06/29 08:09:59;;;;;;;16.83;10.73;;;;;;;;;;5038580;28;20036;-81
2023/06/29 08:12:25;;;;;;;17.17;10.95;;;;;;;;;;5046252;28;20036;-81
2023/06/29 08:14:50;;;;;;;16.85;10.88;;;;;;;;;;5037578;28;20043;-82
2023/06/29 08:17:16;;;;;;;16.08;10.23;;;;;;;;;;5041237;28;20368;-84
2023/06/29 08:19:41;;;;;;;17.10;10.85;;;;;;;;;;5055833;28;20029;-83
2023/06/29 08:22:07;;;;;;;17.50;11.00;;;;;;;;;;5053932;28;20033;-84
2023/06/29 08:24:32;;;;;;;18.58;11.23;;;;;;;;;;5033834;28;20484;-83
2023/06/29 08:26:58;;;;;;;16.60;10.57;;;;;;;;;;5037329;28;20033;-85
2023/06/29 08:29:24;;;;;;;18.65;11.70;;;;;;;;;;5054546;28;20083;-84
2023/06/29 08:31:49;;;;;;;17.95;10.30;;;;;;;;;;5059708;28;20037;-85
2023/06/29 08:34:15;;;;;;;17.27;10.88;;;;;;;;;;5060032;28;20079;-85
2023/06/29 08:36:40;;;;;;;16.95;10.68;;;;;;;;;;5055800;28;20475;-83
2023/06/29 08:39:05;;;;;;;17.73;10.85;;;;;;;;;;5047791;28;20504;-78
2023/06/29 08:41:31;;;;;;;17.67;11.77;;;;;;;;;;5037864;28;20050;-78
2023/06/29 08:43:56;;;;;;;19.10;11.52;;;;;;;;;;5041931;28;20469;-79
2023/06/29 08:46:23;;;;;;;17.15;10.50;;;;;;;;;;5046216;28;20026;-79
2023/06/29 08:48:48;;;;;;;16.50;10.73;;;;;;;;;;5050293;28;20033;-78
2023/06/29 08:51:18;;;;;;;15.55;10.23;;;;;;;;;;5055781;28;20029;-80
2023/06/29 08:53:45;;;;;;;19.48;11.00;;;;;;;;;;5058702;28;20485;-79
2023/06/29 08:56:12;;;;;;;16.27;10.68;;;;;;;;;;5034190;28;20362;-79
2023/06/29 08:58:39;;;;;;;16.70;10.45;;;;;;;;;;5054572;28;20096;-80
2023/06/29 09:01:06;;;;;;;15.80;9.95;;;;;;;;;;5055637;28;20033;-79
2023/06/29 09:03:32;;;;;;;17.05;10.60;;;;;;;;;;5052024;28;20017;-79
2023/06/29 09:05:57;;;;;;;15.57;10.30;;;;;;;;;;5056672;28;20039;-76
2023/06/29 09:08:26;;;;;;;16.95;10.00;;;;;;;;;;5055681;28;20111;-79
2023/06/29 09:10:52;;;;;;;16.73;10.65;;;;;;;;;;5059009;28;20120;-79
2023/06/29 09:13:18;;;;;;;18.52;11.57;;;;;;;;;;5053893;28;20168;-80
2023/06/29 09:15:45;;;;;;;16.20;10.52;;;;;;;;;;5029987;28;20037;-80
2023/06/29 09:18:11;;;;;;;17.10;10.73;;;;;;;;;;5037410;28;20040;-78
2023/06/29 09:20:36;;;;;;;16.55;10.82;;;;;;;;;;5054962;28;20029;-80
2023/06/29 09:23:05;;;;;;;15.80;10.35;;;;;;;;;;5036929;28;20087;-79
2023/06/29 09:25:33;;;;;;;17.00;9.98;;;;;;;;;;5045526;28;20037;-80
2023/06/29 09:28:04;;;;;;;15.30;10.45;;;;;;;;;;5062438;28;20123;-79
2023/06/29 09:30:35;;;;;;;16.73;10.88;;;;;;;;;;5033394;28;20055;-78
2023/06/29 09:33:11;;;;;;;14.40;9.82;;;;;;;;;;5062291;28;20080;-80
2023/06/29 09:35:44;;;;;;;16.88;9.93;;;;;;;;;;5057898;28;20017;-80
2023/06/29 09:38:10;;;;;;;16.55;9.85;;;;;;;;;;5034957;28;20115;-80
2023/06/29 09:40:52;;;;;;;14.63;9.57;;;;;;;;;;5058058;28;20059;-78
2023/06/29 09:43:20;;;;;;;17.92;10.32;;;;;;;;;;5045382;28;20016;-80
2023/06/29 09:45:46;;;;;;;17.65;9.35;;;;;;;;;;5044263;28;20029;-80
2023/06/29 09:48:12;;;;;;;15.35;9.52;;;;;;;;;;5040278;28;20064;-80
2023/06/29 09:50:40;;;;;;;15.48;10.15;;;;;;;;;;5039948;28;20107;-76
2023/06/29 09:53:09;;;;;;;13.88;8.93;;;;;;;;;;5059168;28;20104;-79
2023/06/29 09:55:36;;;;;;;16.42;9.68;;;;;;;;;;5058335;28;20016;-79
2023/06/29 09:58:02;;;;;;;15.32;9.65;;;;;;;;;;5057242;28;20123;-79
2023/06/29 10:00:27;;;;;;;16.60;10.88;;;;;;;;;;5035851;28;20037;-80
2023/06/29 10:02:54;;;;;;;17.42;10.90;;;;;;;;;;5036849;28;20499;-80
2023/06/29 10:05:21;;;;;;;14.35;9.95;;;;;;;;;;5047330;28;20017;-77
2023/06/29 10:07:46;;;;;;;16.08;10.25;;;;;;;;;;5056358;28;20024;-80
2023/06/29 10:10:14;;;;;;;17.52;10.63;;;;;;;;;;5041045;28;20094;-78
2023/06/29 10:12:40;;;;;;;16.58;10.50;;;;;;;;;;5055240;28;20025;-79
2023/06/29 10:15:11;;;;;;;15.88;10.18;;;;;;;;;;5037549;28;20033;-78
2023/06/29 10:18:11;;;;;;;19.27;11.48;;;;;;;;;;5034879;28;20017;-80
2023/06/29 10:20:40;;;;;;;17.67;10.55;;;;;;;;;;5040262;28;20045;-80
2023/06/29 10:23:06;;;;;;;17.95;11.13;;;;;;;;;;5032199;28;20489;-79
2023/06/29 10:25:36;;;;;;;17.23;10.93;;;;;;;;;;5033999;28;20055;-80
2023/06/29 10:28:03;;;;;;;18.35;11.38;;;;;;;;;;5053320;28;20542;-80
2023/06/29 10:30:28;;;;;;;17.65;11.77;;;;;;;;;;5051455;28;20033;-80
2023/06/29 10:32:53;;;;;;;18.63;11.07;;;;;;;;;;5048498;28;20362;-79
2023/06/29 10:35:23;;;;;;;18.08;11.20;;;;;;;;;;5038464;28;20056;-80
2023/06/29 10:37:50;;;;;;;19.02;11.10;;;;;;;;;;5033486;28;20365;-79
2023/06/29 10:40:25;;;;;;;17.75;11.02;;;;;;;;;;5053893;28;20021;-80
2023/06/29 10:42:56;;;;;;;17.10;11.20;;;;;;;;;;5055823;28;20017;-79
2023/06/29 10:45:21;;;;;;;18.52;10.30;;;;;;;;;;5055446;28;20029;-79
2023/06/29 10:47:55;;;;;;;19.25;11.45;;;;;;;;;;5054987;28;20278;-80
2023/06/29 10:50:44;;;;;;;17.80;10.95;;;;;;;;;;5047448;28;20022;-79
2023/06/29 10:53:14;;;;;;;19.85;11.02;;;;;;;;;;5028169;28;20047;-81
2023/06/29 10:55:42;;;;;;;18.15;11.23;;;;;;;;;;5058930;28;20064;-79
2023/06/29 10:58:19;;;;;;;17.73;10.95;;;;;;;;;;5045889;28;20053;-81
2023/06/29 11:00:45;;;;;;;17.90;12.07;;;;;;;;;;5032331;28;20083;-80
2023/06/29 11:03:12;;;;;;;18.70;11.75;;;;;;;;;;5034186;28;20021;-80
2023/06/29 11:05:38;;;;;;;17.52;11.45;;;;;;;;;;5051308;28;20025;-80
2023/06/29 11:08:05;;;;;;;19.50;11.60;;;;;;;;;;5053659;28;20064;-78
2023/06/29 11:10:31;;;;;;;21.05;11.85;;;;;;;;;;5052778;28;20033;-78
2023/06/29 11:12:56;;;;;;;17.77;11.45;;;;;;;;;;5031662;28;20855;-75
2023/06/29 11:15:22;;;;;;;19.67;11.98;;;;;;;;;;5050323;28;20031;-79
2023/06/29 11:17:49;;;;;;;19.75;11.73;;;;;;;;;;5045425;28;20095;-79
2023/06/29 11:20:17;;;;;;;19.90;12.48;;;;;;;;;;5047166;28;20472;-79
2023/06/29 11:22:44;;;;;;;21.50;12.77;;;;;;;;;;5058380;28;20021;-80
2023/06/29 11:25:14;;;;;;;20.17;12.80;;;;;;;;;;5056712;28;20039;-79
2023/06/29 11:27:46;;;;;;;20.15;12.65;;;;;;;;;;5036562;28;20526;-80
2023/06/29 11:30:12;;;;;;;19.63;12.80;;;;;;;;;;5055767;28;20087;-79
2023/06/29 11:32:38;;;;;;;19.88;12.65;;;;;;;;;;5054151;28;20424;-80
2023/06/29 11:35:10;;;;;;;18.75;13.00;;;;;;;;;;5054623;28;20039;-79
2023/06/29 11:37:36;;;;;;;23.90;13.02;;;;;;;;;;5054376;28;20032;-76
2023/06/29 11:40:07;;;;;;;22.95;13.20;;;;;;;;;;5054546;28;20109;-77
2023/06/29 11:42:34;;;;;;;19.67;12.55;;;;;;;;;;5053609;28;20393;-79
2023/06/29 11:45:05;;;;;;;24.42;14.13;;;;;;;;;;5018568;28;20029;-76
2023/06/29 11:47:31;;;;;;;21.67;13.40;;;;;;;;;;5033414;28;20025;-80
2023/06/29 11:50:00;;;;;;;22.65;14.43;;;;;;;;;;5056582;28;20060;-78
2023/06/29 11:52:30;;;;;;;21.83;14.35;;;;;;;;;;5032056;28;20033;-76
2023/06/29 11:54:58;;;;;;;21.73;13.55;;;;;;;;;;5036245;28;20493;-78
2023/06/29 11:57:23;;;;;;;22.77;14.13;;;;;;;;;;5046919;28;20413;-78
2023/06/29 11:59:48;;;;;;;20.23;13.10;;;;;;;;;;5049045;28;20063;-79
2023/06/29 12:02:15;;;;;;;22.50;14.43;;;;;;;;;;5034335;28;20087;-74
2023/06/29 12:05:03;;;;;;;21.80;13.88;;;;;;;;;;5050362;28;20035;-79
2023/06/29 12:07:38;;;;;;;19.80;13.55;;;;;;;;;;5048427;28;20044;-76
2023/06/29 12:10:15;;;;;;;21.35;14.05;;;;;;;;;;5026664;28;20029;-77
2023/06/29 12:12:42;;;;;;;21.60;14.27;;;;;;;;;;5035805;28;20485;-76
2023/06/29 12:15:13;;;;;;;22.65;14.15;;;;;;;;;;5034374;28;20021;-79
2023/06/29 12:17:38;;;;;;;23.20;13.65;;;;;;;;;;5056499;28;20060;-79
2023/06/29 12:20:14;;;;;;;23.23;14.38;;;;;;;;;;5047397;28;20106;-75
2023/06/29 12:22:40;;;;;;;22.98;14.25;;;;;;;;;;5047171;28;20041;-77
2023/06/29 12:25:09;;;;;;;28.40;15.63;;;;;;;;;;5048517;28;20040;-78
2023/06/29 12:27:34;;;;;;;23.65;14.18;;;;;;;;;;5047705;28;20039;-79
2023/06/29 12:30:00;;;;;;;25.27;15.90;;;;;;;;;;5027877;28;20033;-78
2023/06/29 12:32:25;;;;;;;22.23;15.02;;;;;;;;;;5052049;28;20066;-79
2023/06/29 12:34:50;;;;;;;26.35;16.23;;;;;;;;;;5046480;28;20408;-78
2023/06/29 12:37:16;;;;;;;23.75;15.60;;;;;;;;;;5046174;28;20044;-78
2023/06/29 12:39:41;;;;;;;25.10;16.20;;;;;;;;;;5046600;28;20032;-79
2023/06/29 12:42:06;;;;;;;26.48;16.20;;;;;;;;;;5046756;28;20039;-76
2023/06/29 12:44:32;;;;;;;23.75;16.20;;;;;;;;;;5048883;28;20056;-76
2023/06/29 12:46:58;;;;;;;24.73;15.20;;;;;;;;;;5047606;28;20110;-77
2023/06/29 12:49:23;;;;;;;25.55;15.68;;;;;;;;;;5047048;28;20025;-78
2023/06/29 12:51:48;;;;;;;25.05;16.50;;;;;;;;;;5045101;28;20028;-77
2023/06/29 12:54:14;;;;;;;26.50;17.05;;;;;;;;;;5039898;28;20028;-79
2023/06/29 12:56:39;;;;;;;26.67;17.30;;;;;;;;;;5030317;28;20036;-77
2023/06/29 12:59:04;;;;;;;26.38;16.73;;;;;;;;;;5030293;28;20028;-79
2023/06/29 13:01:30;;;;;;;28.65;17.58;;;;;;;;;;5052158;28;20028;-79
2023/06/29 13:03:55;;;;;;;28.10;16.60;;;;;;;;;;5055281;28;20016;-75
2023/06/29 13:06:21;;;;;;;30.45;19.85;;;;;;;;;;5053068;28;20035;-77
2023/06/29 13:08:46;;;;;;;23.20;15.30;;;;;;;;;;5044023;28;20051;-79
2023/06/29 13:11:12;;;;;;;19.85;13.23;;;;;;;;;;5059261;28;20119;-75
2023/06/29 13:13:37;;;;;;;22.33;13.75;;;;;;;;;;5031405;28;20233;-78
2023/06/29 13:16:02;;;;;;;19.60;13.27;;;;;;;;;;5038083;28;20032;-78
2023/06/29 13:18:28;;;;;;;21.30;13.85;;;;;;;;;;5057382;28;20040;-76
2023/06/29 13:20:53;;;;;;;22.48;13.23;;;;;;;;;;5037428;28;20135;-76
2023/06/29 13:23:18;;;;;;;20.05;12.52;;;;;;;;;;5052075;28;20036;-78
2023/06/29 13:25:44;;;;;;;19.67;12.35;;;;;;;;;;5052670;28;20039;-78
2023/06/29 13:28:10;;;;;;;22.55;12.98;;;;;;;;;;5054423;28;20076;-79
2023/06/29 13:30:35;;;;;;;22.08;13.25;;;;;;;;;;5043909;28;20035;-77
2023/06/29 13:33:01;;;;;;;20.60;12.52;;;;;;;;;;5049835;28;20044;-79
2023/06/29 13:35:26;;;;;;;18.13;11.70;;;;;;;;;;5049514;28;20035;-83
2023/06/29 13:37:51;;;;;;;21.17;12.93;;;;;;;;;;5032550;28;20123;-80
2023/06/29 13:40:17;;;;;;;25.90;12.93;;;;;;;;;;5035976;28;20037;-80
2023/06/29 13:42:42;;;;;;;19.88;12.10;;;;;;;;;;5046789;28;20024;-82
2023/06/29 13:45:08;;;;;;;18.52;11.20;;;;;;;;;;5041004;28;20037;-76
2023/06/29 13:47:39;;;;;;;18.73;11.57;;;;;;;;;;5113345;22;20117;-76
2023/06/29 13:50:05;;;;;;;19.27;10.38;;;;;;;;;;5636321;22;20016;-78
2023/06/29 14:10:37;;;;;;;15.57;9.93;;;;;;;;;;5380073;22;20050;-81
2023/06/29 14:13:02;;;;;;;15.40;9.48;;;;;;;;;;4995961;28;20255;-87
2023/06/29 14:15:28;;;;;;;18.58;10.95;;;;;;;;;;4983196;28;20030;-83
2023/06/29 14:17:53;;;;;;;14.38;9.15;;;;;;;;;;4977474;28;20061;-76
2023/06/29 14:20:18;;;;;;;15.05;9.43;;;;;;;;;;4981973;28;20505;-88
2023/06/29 14:22:44;;;;;;;14.30;9.65;;;;;;;;;;4999815;28;20038;-88
2023/06/29 14:25:09;;;;;;;15.25;9.55;;;;;;;;;;4985846;28;20488;-82
2023/06/29 14:27:35;;;;;;;17.92;10.30;;;;;;;;;;4992211;28;20025;-86
2023/06/29 14:30:00;;;;;;;15.32;10.35;;;;;;;;;;4992638;28;20040;-86
2023/06/29 14:32:26;;;;;;;15.07;9.77;;;;;;;;;;5011649;28;20041;-77
2023/06/29 14:34:51;;;;;;;17.17;10.90;;;;;;;;;;5014804;28;20040;-87